Time;durP1;ratioP1;P1;durP2;ratioP2;P2;SDS_P1;SDS_P2;PMS_P1;PMS_P2;Temp;Humidity;BMP_temperature;BMP_pressure;BME280_temperature;BME280_humidity;BME280_pressure;Samples;Min_cycle;Max_cycle;Signal;HPM_P1;HPM_P2
2024/01/04 00:02:46;;;;;;;;;;;;;;;5.81;100.00;98878.19;4980898;23;20029;-79
2024/01/04 00:08:53;;;;;;;;;;;;;;;5.82;100.00;98895.00;4974019;28;20507;-79
2024/01/04 00:11:53;;;;;;;;;;;;;;;5.83;100.00;98891.31;4980738;28;19918;-79
2024/01/04 00:18:06;;;;;;;;;;;;;;;5.82;100.00;98901.19;4933324;28;20286;-79
2024/01/04 00:23:55;;;;;;;;;;;;;;;5.80;100.00;98911.25;4986692;28;19928;-79
2024/01/04 00:29:57;;;;;;;;;;;;;;;5.81;100.00;98920.06;4983131;28;19929;-79
2024/01/04 00:33:04;;;;;;;;;;;;;;;5.80;100.00;98921.09;4931508;29;20406;-79
2024/01/04 00:39:01;;;;;;;;;;;;;;;;;;;;;
2024/01/04 00:42:01;;;;;;;;;;;;;;;;;;;;;
2024/01/04 00:48:07;;;;;;;;;;;;;;;5.82;100.00;98962.59;4802542;29;20008;-79
2024/01/04 00:50:34;;;;;;;;;;;;;;;5.82;100.00;98970.63;4771894;29;20406;-79
2024/01/04 00:53:01;;;;;;;;;;;;;;;5.81;100.00;98979.66;4772267;29;19933;-80
2024/01/04 00:55:29;;;;;;;;;;;;;;;5.77;100.00;98986.44;4786743;29;19932;-79
2024/01/04 00:58:30;;;;;;;;;;;;;;;5.76;100.00;98998.16;4809178;29;20004;-79
2024/01/04 01:01:15;;;;;;;;;;;;;;;5.75;100.00;98994.66;4746690;30;19934;-79
2024/01/04 01:13:20;;;;;;;;;;;;;;;5.73;100.00;99026.09;5018055;28;19971;-78
2024/01/04 01:40:24;;;;;;;;;;;;;;;5.65;100.00;99092.25;5072516;23;20595;-77
2024/01/04 01:43:15;;;;;;;;;;;;;;;5.64;100.00;99095.94;5018459;28;19925;-78
2024/01/04 01:46:15;;;;;;;;;;;;;;;5.63;100.00;99113.00;5020503;28;19921;-77
2024/01/04 01:52:33;;;;;;;;;;;;;;;5.67;100.00;99114.19;5025011;28;19927;-76
2024/01/04 02:13:10;;;;;;;;;;;;;;;5.62;100.00;99152.19;4961279;29;19974;-80
2024/01/04 02:21:31;;;;;;;;;;;;;;;5.63;100.00;99177.06;5108035;23;19980;-77
2024/01/04 02:24:06;;;;;;;;;;;;;;;5.65;100.00;99175.00;4992897;28;20377;-76
2024/01/04 02:26:31;;;;;;;;;;;;;;;5.61;100.00;99188.78;4997085;28;20032;-77
2024/01/04 02:28:56;;;;;;;;;;;;;;;5.58;100.00;99194.50;5014552;28;20023;-77
2024/01/04 02:31:22;;;;;;;;;;;;;;;5.58;100.00;99201.69;5000053;28;19918;-77
2024/01/04 02:33:49;;;;;;;;;;;;;;;5.55;100.00;99204.78;5011622;28;19926;-76
2024/01/04 02:36:14;;;;;;;;;;;;;;;5.56;100.00;99212.56;4998084;28;19924;-78
2024/01/04 02:38:40;;;;;;;;;;;;;;;5.59;100.00;99216.66;5003492;28;20356;-78
2024/01/04 02:41:05;;;;;;;;;;;;;;;5.58;100.00;99217.69;5017117;28;20454;-78
2024/01/04 02:43:30;;;;;;;;;;;;;;;5.58;100.00;99221.22;5015009;28;19925;-78
2024/01/04 02:45:55;;;;;;;;;;;;;;;5.54;100.00;99219.97;5018128;28;19921;-77
2024/01/04 02:48:21;;;;;;;;;;;;;;;5.53;100.00;99222.84;5017248;28;19992;-78
2024/01/04 02:50:46;;;;;;;;;;;;;;;5.50;100.00;99218.72;5028677;28;19909;-78
2024/01/04 02:53:12;;;;;;;;;;;;;;;5.46;100.00;99242.34;5023347;28;19922;-78
2024/01/04 02:55:37;;;;;;;;;;;;;;;5.44;100.00;99240.91;5025006;28;20289;-78
2024/01/04 02:58:02;;;;;;;;;;;;;;;5.44;100.00;99244.38;5027931;28;19975;-78
2024/01/04 03:00:27;;;;;;;;;;;;;;;5.47;100.00;99243.19;5018898;28;20038;-78
2024/01/04 03:02:53;;;;;;;;;;;;;;;5.49;100.00;99249.09;5017401;28;19922;-79
2024/01/04 03:05:18;;;;;;;;;;;;;;;5.52;100.00;99253.22;5018394;28;19922;-78
2024/01/04 03:07:43;;;;;;;;;;;;;;;5.57;100.00;99251.59;5017209;28;20017;-78
2024/01/04 03:10:09;;;;;;;;;;;;;;;5.62;100.00;99258.97;5019021;28;19928;-78
2024/01/04 03:12:36;;;;;;;;;;;;;;;5.60;100.00;99266.38;5015843;28;19928;-78
2024/01/04 03:15:01;;;;;;;;;;;;;;;5.59;100.00;99270.91;5019502;28;19964;-78
2024/01/04 03:17:26;;;;;;;;;;;;;;;5.58;100.00;99273.75;5019855;28;19921;-77
2024/01/04 03:19:52;;;;;;;;;;;;;;;5.59;100.00;99283.41;5028816;28;19913;-78
2024/01/04 03:22:17;;;;;;;;;;;;;;;5.56;100.00;99276.63;5038581;28;19940;-78
2024/01/04 03:24:42;;;;;;;;;;;;;;;5.59;100.00;99286.91;5029154;28;19937;-77
2024/01/04 03:27:08;;;;;;;;;;;;;;;5.60;100.00;99287.72;5033378;28;19917;-77
2024/01/04 03:29:34;;;;;;;;;;;;;;;5.58;100.00;99290.59;5013472;23;19981;-77
2024/01/04 03:31:59;;;;;;;;;;;;;;;5.57;100.00;99294.31;4997056;28;20075;-77
2024/01/04 03:34:24;;;;;;;;;;;;;;;5.60;100.00;99299.25;5001764;28;20441;-78
2024/01/04 03:36:51;;;;;;;;;;;;;;;5.60;100.00;99303.75;5005387;28;19926;-76
2024/01/04 03:39:16;;;;;;;;;;;;;;;5.60;100.00;99301.06;4987466;28;19922;-76
2024/01/04 03:41:41;;;;;;;;;;;;;;;5.60;100.00;99303.75;4994742;28;19940;-77
2024/01/04 03:44:07;;;;;;;;;;;;;;;5.60;100.00;99296.56;4994009;28;19928;-77
2024/01/04 03:46:33;;;;;;;;;;;;;;;5.56;100.00;99307.88;4994349;28;19965;-77
2024/01/04 03:48:58;;;;;;;;;;;;;;;5.59;100.00;99308.28;4994140;28;20294;-78
2024/01/04 03:51:23;;;;;;;;;;;;;;;5.59;100.00;99318.94;4994142;28;19925;-79
2024/01/04 03:53:49;;;;;;;;;;;;;;;5.57;100.00;99310.31;4984401;28;19922;-78
2024/01/04 03:56:14;;;;;;;;;;;;;;;5.58;100.00;99327.16;4958215;28;19949;-77
2024/01/04 03:58:42;;;;;;;;;;;;;;;5.56;100.00;99330.03;4993676;28;19929;-78
2024/01/04 04:01:07;;;;;;;;;;;;;;;5.57;100.00;99338.84;4994217;28;19922;-76
2024/01/04 04:03:35;;;;;;;;;;;;;;;5.60;100.00;99333.94;4993766;28;19976;-77
2024/01/04 04:06:04;;;;;;;;;;;;;;;5.63;100.00;99335.38;4992985;28;20017;-77
2024/01/04 04:08:29;;;;;;;;;;;;;;;5.60;100.00;99333.94;4993121;28;19925;-76
2024/01/04 04:10:54;;;;;;;;;;;;;;;5.60;100.00;99336.63;4993681;28;20343;-76
2024/01/04 04:13:20;;;;;;;;;;;;;;;5.61;100.00;99350.78;4992999;28;19925;-76
2024/01/04 04:15:45;;;;;;;;;;;;;;;5.55;100.00;99338.25;4992594;28;19948;-77
2024/01/04 04:18:10;;;;;;;;;;;;;;;5.52;100.00;99344.78;4993446;28;20004;-77
2024/01/04 04:20:35;;;;;;;;;;;;;;;5.50;100.00;99351.38;4993018;28;20017;-77
2024/01/04 04:23:01;;;;;;;;;;;;;;;5.50;100.00;99359.38;4992597;28;20054;-77
2024/01/04 04:25:26;;;;;;;;;;;;;;;5.47;100.00;99355.28;4994623;28;20799;-77
2024/01/04 04:27:51;;;;;;;;;;;;;;;5.43;100.00;99359.34;4992233;28;20400;-78
2024/01/04 04:30:17;;;;;;;;;;;;;;;5.40;100.00;99373.09;4993033;28;20398;-77
2024/01/04 04:32:42;;;;;;;;;;;;;;;5.37;100.00;99382.34;4993117;28;20436;-77
2024/01/04 04:35:07;;;;;;;;;;;;;;;5.37;100.00;99381.50;4991269;28;20004;-77
2024/01/04 04:37:33;;;;;;;;;;;;;;;5.33;100.00;99394.41;4993528;28;20037;-77
2024/01/04 04:39:58;;;;;;;;;;;;;;;5.32;100.00;99398.91;4993843;28;19932;-77
2024/01/04 04:42:23;;;;;;;;;;;;;;;5.31;100.00;99404.47;4992540;28;19918;-77
2024/01/04 04:44:48;;;;;;;;;;;;;;;5.32;100.00;99400.78;4993255;28;19964;-77
2024/01/04 04:47:13;;;;;;;;;;;;;;;5.31;100.00;99397.28;4995280;28;19926;-76
2024/01/04 04:49:39;;;;;;;;;;;;;;;5.31;100.00;99405.28;4991913;28;20012;-77
2024/01/04 04:52:04;;;;;;;;;;;;;;;5.31;100.00;99397.28;4993142;28;19922;-77
2024/01/04 04:54:30;;;;;;;;;;;;;;;5.28;100.00;99408.38;4992907;28;19918;-77
2024/01/04 04:56:58;;;;;;;;;;;;;;;5.28;100.00;99408.38;4992162;28;20369;-78
2024/01/04 04:59:23;;;;;;;;;;;;;;;5.30;100.00;99408.16;4992809;28;19965;-78
2024/01/04 05:01:50;;;;;;;;;;;;;;;5.28;100.00;99419.03;4993263;28;19954;-76
2024/01/04 05:04:15;;;;;;;;;;;;;;;5.28;100.00;99419.03;4991804;28;19934;-77
2024/01/04 05:06:43;;;;;;;;;;;;;;;5.30;100.00;99419.63;4992865;28;19917;-76
2024/01/04 05:09:08;;;;;;;;;;;;;;;5.32;100.00;99422.94;4993779;28;19918;-76
2024/01/04 05:11:34;;;;;;;;;;;;;;;5.34;100.00;99421.91;4991118;28;20417;-76
2024/01/04 05:18:57;;;;;;;;;;;;;;;5.39;100.00;99435.50;4990213;28;19926;-75
2024/01/04 05:21:22;;;;;;;;;;;;;;;5.39;100.00;99435.50;4992757;28;19925;-76
2024/01/04 05:23:47;;;;;;;;;;;;;;;5.37;100.00;99440.19;4993660;28;20293;-76
2024/01/04 05:26:20;;;;;;;;;;;;;;;5.37;100.00;99442.88;4991690;28;20753;-78
2024/01/04 05:28:45;;;;;;;;;;;;;;;5.38;100.00;99440.03;4992230;28;20378;-77
2024/01/04 05:34:17;;;;;;;;;;;;;;;5.39;100.00;99454.97;5072116;23;19926;-77
2024/01/04 05:37:15;;;;;;;;;;;;;;;5.41;100.00;99463.63;4938704;28;19918;-77
2024/01/04 05:40:03;;;;;;;;;;;;;;;5.43;100.00;99461.59;4940061;28;19934;-77
2024/01/04 05:42:55;;;;;;;;;;;;;;;5.44;100.00;99475.75;4975694;28;19922;-77
2024/01/04 05:49:00;;;;;;;;;;;;;;;5.42;100.00;99485.81;4946309;29;19947;-77
2024/01/04 05:51:54;;;;;;;;;;;;;;;5.41;100.00;99492.97;4918108;29;19919;-77
2024/01/04 05:54:26;;;;;;;;;;;;;;;5.41;100.00;99489.50;4887867;29;19966;-77
2024/01/04 05:56:51;;;;;;;;;;;;;;;5.41;100.00;99492.16;4916610;29;19979;-77
2024/01/04 05:59:53;;;;;;;;;;;;;;;5.37;100.00;99494.41;4916027;29;19966;-77
2024/01/04 06:02:43;;;;;;;;;;;;;;;5.31;100.00;99498.66;4899072;29;20402;-76
2024/01/04 06:05:14;;;;;;;;;;;;;;;5.29;100.00;99500.72;4917193;29;20022;-77
2024/01/04 06:07:54;;;;;;;;;;;;;;;5.27;100.00;99512.59;4917220;29;19919;-76
2024/01/04 06:16:07;;;;;;;;;;;;;;;5.20;100.00;99531.25;5426259;23;19926;-77
2024/01/04 06:18:57;;;;;;;;;;;;;;;5.22;100.00;99534.53;5016967;28;20012;-77
2024/01/04 06:36:05;;;;;;;;;;;;;;;5.19;100.00;99569.59;5108701;23;20397;-78
2024/01/04 06:44:33;;;;;;;;;;;;;;;5.15;100.00;99571.84;4957234;28;20108;-77
2024/01/04 06:50:40;;;;;;;;;;;;;;;5.22;100.00;99587.06;4936351;29;20419;-77
2024/01/04 07:02:38;;;;;;;;;;;;;;;5.07;100.00;99617.31;5009700;23;19984;-78
2024/01/04 07:07:58;;;;;;;;;;;;;;;5.05;100.00;99623.88;4994369;28;20060;-78
2024/01/04 07:10:54;;;;;;;;;;;;;;;5.06;100.00;99628.19;5017977;28;19957;-77
2024/01/04 07:13:22;;;;;;;;;;;;;;;5.03;100.00;99618.72;5024101;28;19948;-78
2024/01/04 07:16:09;;;;;;;;;;;;;;;5.01;100.00;99620.75;5030549;28;20439;-77
2024/01/04 07:18:49;;;;;;;;;;;;;;;5.00;100.00;99624.44;5014249;28;19932;-77
2024/01/04 07:21:18;;;;;;;;;;;;;;;5.01;100.00;99629.56;5014397;28;19948;-76
2024/01/04 07:23:55;;;;;;;;;;;;;;;5.00;100.00;99632.44;5012566;28;20067;-76
2024/01/04 07:26:20;;;;;;;;;;;;;;;4.97;100.00;99633.63;5013452;28;19926;-77
2024/01/04 07:29:17;;;;;;;;;;;;;;;4.96;100.00;99634.66;5013348;28;19917;-78
2024/01/04 07:35:00;;;;;;;;;;;;;;;4.94;100.00;99652.69;5012858;28;20386;-82
2024/01/04 07:37:58;;;;;;;;;;;;;;;4.93;100.00;99651.06;5012779;28;20492;-82
2024/01/04 07:43:15;;;;;;;;;;;;;;;4.85;100.00;99659.16;5010399;28;19929;-82
2024/01/04 07:48:58;;;;;;;;;;;;;;;4.78;100.00;99661.75;5011245;28;19968;-82
2024/01/04 07:51:58;;;;;;;;;;;;;;;4.77;100.00;99664.59;5010572;28;19952;-81
2024/01/04 07:54:51;;;;;;;;;;;;;;;4.75;100.00;99675.47;5011902;28;19917;-82
2024/01/04 07:58:00;;;;;;;;;;;;;;;;;;;;;
2024/01/04 08:09:11;;;;;;;;;;;;;;;4.83;100.00;99698.53;5091348;23;19972;-81
2024/01/04 08:20:10;;;;;;;;;;;;;;;4.86;100.00;99709.63;5179228;23;19930;-80
2024/01/04 08:25:55;;;;;;;;;;;;;;;4.89;100.00;99712.94;5047656;23;19929;-78
2024/01/04 09:32:33;;;;;;;;;;;;;;;5.69;100.00;99772.47;4996425;28;19914;-80
2024/01/04 12:42:18;;;;;;;;;;;;;;;6.45;100.00;99851.22;5950545;23;20431;-76
2024/01/04 12:44:48;;;;;;;;;;;;;;;6.46;100.00;99852.88;4802835;29;19929;-75
2024/01/04 12:47:15;;;;;;;;;;;;;;;6.45;100.00;99851.22;4803374;29;19925;-74
2024/01/04 12:49:53;;;;;;;;;;;;;;;6.45;100.00;99859.22;4803133;29;19921;-77
2024/01/04 12:52:18;;;;;;;;;;;;;;;6.47;100.00;99859.88;4804317;29;19925;-76
2024/01/04 14:43:48;;;;;;;;;;;;;;;6.16;100.00;99924.34;4915017;23;20046;-79
2024/01/04 14:46:44;;;;;;;;;;;;;;;6.05;100.00;99931.03;4982885;23;20030;-78
2024/01/04 14:57:50;;;;;;;;;;;;;;;5.90;100.00;99939.91;4861158;29;20353;-78
2024/01/04 15:00:19;;;;;;;;;;;;;;;5.84;100.00;99932.63;4874311;29;19923;-77
2024/01/04 15:05:53;;;;;;;;;;;;;;;5.76;100.00;99928.22;4869680;23;19974;-77
2024/01/04 15:08:35;;;;;;;;;;;;;;;5.77;100.00;99923.72;4919275;23;19932;-77
2024/01/04 15:11:29;;;;;;;;;;;;;;;5.72;100.00;99928.81;4918529;28;19927;-77
2024/01/04 15:14:38;;;;;;;;;;;;;;;;;;;;;
2024/01/04 15:17:08;;;;;;;;;;;;;;;5.70;100.00;99936.16;4871482;29;20304;-77
2024/01/04 15:19:33;;;;;;;;;;;;;;;5.64;100.00;99934.28;4879204;29;19920;-77
2024/01/04 15:21:58;;;;;;;;;;;;;;;5.72;100.00;99940.31;4897240;29;19928;-76
2024/01/04 15:26:56;;;;;;;;;;;;;;;5.59;100.00;99958.84;4909940;23;19928;-77
2024/01/04 15:29:40;;;;;;;;;;;;;;;5.73;100.00;99951.81;4895183;29;20475;-77
2024/01/04 15:32:06;;;;;;;;;;;;;;;5.77;100.00;99963.78;4901557;23;20010;-78
2024/01/04 15:37:03;;;;;;;;;;;;;;;5.91;100.00;99960.25;4901423;23;20280;-78
2024/01/04 15:42:15;;;;;;;;;;;;;;;6.10;100.00;99962.53;4907268;23;19935;-77
2024/01/04 15:44:47;;;;;;;;;;;;;;;6.22;100.00;99961.84;4895653;29;19930;-77
2024/01/04 15:47:19;;;;;;;;;;;;;;;6.15;100.00;99971.66;4897308;29;19920;-77
2024/01/04 15:49:50;;;;;;;;;;;;;;;6.06;100.00;99962.94;4877113;29;19940;-77
2024/01/04 15:52:18;;;;;;;;;;;;;;;6.00;100.00;99968.19;4887319;29;19964;-77
2024/01/04 15:54:48;;;;;;;;;;;;;;;6.03;100.00;99962.44;4896839;29;19919;-78
2024/01/04 15:57:22;;;;;;;;;;;;;;;6.04;100.00;99964.94;4901756;29;19920;-77
2024/01/04 15:59:56;;;;;;;;;;;;;;;6.15;100.00;99963.63;4896401;29;20385;-77
2024/01/04 16:02:28;;;;;;;;;;;;;;;6.06;100.00;99957.56;4907383;29;19935;-78
2024/01/04 16:11:23;;;;;;;;;;;;;;;5.78;100.00;99968.13;4886789;29;19995;-77
2024/01/04 16:44:22;;;;;;;;;;;;;;;5.98;100.00;99991.56;4863023;29;19929;-78
2024/01/04 16:47:03;;;;;;;;;;;;;;;;;;;;;
2024/01/04 17:57:35;;;;;;;;;;;;;;;5.75;100.00;99985.31;4860149;29;19947;-78
2024/01/04 18:06:27;;;;;;;;;;;;;;;5.70;100.00;99976.22;4824789;29;20361;-76
2024/01/04 19:00:49;;;;;;;;;;;;;;;5.08;100.00;99970.28;4903447;29;19965;-79
2024/01/04 19:06:18;;;;;;;;;;;;;;;4.53;100.00;99970.44;4909662;29;19934;-78
2024/01/04 19:09:04;;;;;;;;;;;;;;;4.35;100.00;99974.25;4896010;29;19924;-78
2024/01/04 19:11:35;;;;;;;;;;;;;;;4.40;100.00;99973.69;4844898;29;19924;-79
2024/01/04 19:14:01;;;;;;;;;;;;;;;4.39;100.00;99974.72;4890446;29;19934;-78
2024/01/04 19:16:27;;;;;;;;;;;;;;;4.22;100.00;99963.34;4892912;29;20038;-79
2024/01/04 19:19:04;;;;;;;;;;;;;;;4.19;100.00;99958.38;4896323;29;20033;-79
2024/01/04 19:21:32;;;;;;;;;;;;;;;3.95;100.00;99954.84;4898899;29;19980;-79
2024/01/04 19:24:09;;;;;;;;;;;;;;;3.78;100.00;99951.47;4890901;29;19928;-78
2024/01/04 19:26:43;;;;;;;;;;;;;;;3.67;100.00;99957.16;4892571;29;20428;-78
2024/01/04 19:29:15;;;;;;;;;;;;;;;3.54;100.00;99955.06;4896488;29;19938;-78
2024/01/04 19:31:40;;;;;;;;;;;;;;;3.51;100.00;99958.91;4882590;29;19970;-79
2024/01/04 19:34:10;;;;;;;;;;;;;;;3.46;100.00;99961.25;4892899;29;20288;-80
2024/01/04 19:36:37;;;;;;;;;;;;;;;3.41;100.00;99960.97;4882264;29;19927;-80
2024/01/04 19:39:08;;;;;;;;;;;;;;;3.40;100.00;99965.44;4900439;29;20391;-80
2024/01/04 19:41:37;;;;;;;;;;;;;;;3.32;100.00;99968.13;4905480;29;19934;-79
2024/01/04 19:44:12;;;;;;;;;;;;;;;3.26;100.00;99966.16;4898793;29;19954;-80
2024/01/04 19:46:37;;;;;;;;;;;;;;;3.25;100.00;99967.16;4883588;29;19920;-80
2024/01/04 19:49:07;;;;;;;;;;;;;;;3.18;100.00;99961.69;4896119;29;19959;-79
2024/01/04 19:51:32;;;;;;;;;;;;;;;3.14;100.00;99963.03;4881960;29;19927;-80
2024/01/04 19:53:58;;;;;;;;;;;;;;;3.13;100.00;99956.88;4899569;29;20493;-78
2024/01/04 19:56:25;;;;;;;;;;;;;;;3.15;100.00;99960.22;4899407;29;19924;-78
2024/01/04 19:58:51;;;;;;;;;;;;;;;3.13;100.00;99954.22;4893345;29;20010;-79
2024/01/04 20:01:25;;;;;;;;;;;;;;;3.16;100.00;99953.03;4894228;29;20017;-80
2024/01/04 20:03:51;;;;;;;;;;;;;;;3.23;100.00;99953.19;4900216;29;20403;-79
2024/01/04 20:06:16;;;;;;;;;;;;;;;3.28;100.00;99958.84;4901815;29;19920;-79
2024/01/04 20:08:47;;;;;;;;;;;;;;;3.31;100.00;99961.16;4900134;29;19920;-80
2024/01/04 20:11:13;;;;;;;;;;;;;;;3.37;100.00;99955.13;4901731;29;20391;-79
2024/01/04 20:13:38;;;;;;;;;;;;;;;3.41;100.00;99951.13;4901587;29;19916;-79
2024/01/04 20:16:04;;;;;;;;;;;;;;;3.43;100.00;99946.47;4902556;29;20363;-78
2024/01/04 20:18:29;;;;;;;;;;;;;;;3.42;100.00;99934.16;4862974;24;19936;-78
2024/01/04 20:21:03;;;;;;;;;;;;;;;3.46;100.00;99932.81;4875593;29;19935;-79
2024/01/04 20:23:35;;;;;;;;;;;;;;;3.42;100.00;99934.16;4858424;29;19972;-79
2024/01/04 20:26:02;;;;;;;;;;;;;;;3.43;100.00;99930.50;4859582;29;20015;-78
2024/01/04 20:28:28;;;;;;;;;;;;;;;3.45;100.00;99931.16;4843299;29;19931;-79
2024/01/04 20:30:53;;;;;;;;;;;;;;;3.49;100.00;99921.00;4859723;29;20333;-79
2024/01/04 20:33:31;;;;;;;;;;;;;;;3.57;100.00;99922.78;4859467;29;19965;-78
2024/01/04 20:35:56;;;;;;;;;;;;;;;3.59;100.00;99920.78;4873277;29;19928;-78
2024/01/04 20:38:27;;;;;;;;;;;;;;;3.66;100.00;99923.56;4861141;29;20278;-79
2024/01/04 20:40:59;;;;;;;;;;;;;;;3.67;100.00;99917.25;4858848;29;19968;-78
2024/01/04 20:43:39;;;;;;;;;;;;;;;3.71;100.00;99918.56;4863063;29;19940;-78
2024/01/04 20:46:04;;;;;;;;;;;;;;;3.68;100.00;99917.09;4860753;29;19924;-78
2024/01/04 20:48:38;;;;;;;;;;;;;;;3.70;100.00;99916.91;4861361;29;20023;-78
2024/01/04 20:51:04;;;;;;;;;;;;;;;3.70;100.00;99922.22;4860722;29;19947;-78
2024/01/04 20:53:32;;;;;;;;;;;;;;;3.78;100.00;99924.84;4860813;29;20376;-78
2024/01/04 20:56:00;;;;;;;;;;;;;;;3.89;100.00;99915.59;4860878;29;19924;-79
2024/01/04 20:58:28;;;;;;;;;;;;;;;3.89;100.00;99915.59;4854354;29;19924;-78
2024/01/04 21:01:00;;;;;;;;;;;;;;;3.93;100.00;99909.78;4843785;29;19920;-78
2024/01/04 21:03:25;;;;;;;;;;;;;;;3.90;100.00;99909.28;4861377;29;19932;-78
2024/01/04 21:05:59;;;;;;;;;;;;;;;3.91;100.00;99898.47;4860402;29;20381;-79
2024/01/04 21:08:24;;;;;;;;;;;;;;;3.96;100.00;99908.59;4859466;29;19987;-79
2024/01/04 21:11:03;;;;;;;;;;;;;;;3.98;100.00;99898.59;4860454;29;19924;-80
2024/01/04 21:13:28;;;;;;;;;;;;;;;3.99;100.00;99892.25;4854644;29;19924;-79
2024/01/04 21:16:06;;;;;;;;;;;;;;;4.02;100.00;99886.59;4855636;29;20269;-79
2024/01/04 21:18:32;;;;;;;;;;;;;;;4.14;100.00;99888.81;4857954;29;19935;-79
2024/01/04 21:21:01;;;;;;;;;;;;;;;4.16;100.00;99874.31;4862681;29;19924;-80
2024/01/04 21:23:51;;;;;;;;;;;;;;;4.19;100.00;99871.28;4865065;29;19945;-79
2024/01/04 21:26:35;;;;;;;;;;;;;;;4.19;100.00;99855.31;4863820;29;20069;-80
2024/01/04 21:29:09;;;;;;;;;;;;;;;4.23;100.00;99866.44;4864847;29;19963;-79
2024/01/04 21:31:52;;;;;;;;;;;;;;;4.27;100.00;99862.38;4868629;29;19991;-79
2024/01/04 21:34:50;;;;;;;;;;;;;;;4.36;100.00;99855.16;4884065;29;19928;-78
2024/01/04 21:37:27;;;;;;;;;;;;;;;4.36;100.00;99842.66;4869900;29;19924;-79
2024/01/04 21:40:38;;;;;;;;;;;;;;;4.40;100.00;99838.66;4849200;29;19976;-80
2024/01/04 21:43:25;;;;;;;;;;;;;;;4.39;100.00;99834.31;4820732;29;19965;-80
2024/01/04 21:46:30;;;;;;;;;;;;;;;4.43;100.00;99833.94;4824128;29;19977;-79
2024/01/04 21:48:55;;;;;;;;;;;;;;;4.49;100.00;99825.22;4802045;29;20394;-79
2024/01/04 21:51:21;;;;;;;;;;;;;;;4.50;100.00;99826.88;4808836;29;20061;-80
2024/01/04 21:54:02;;;;;;;;;;;;;;;4.55;100.00;99827.97;4808611;29;20081;-79
2024/01/04 21:56:29;;;;;;;;;;;;;;;4.57;100.00;99814.50;4808065;29;20014;-79
2024/01/04 22:02:22;;;;;;;;;;;;;;;4.57;100.00;99816.31;4865745;29;20019;-79
2024/01/04 22:04:50;;;;;;;;;;;;;;;4.63;100.00;99812.91;4881460;29;19919;-79
2024/01/04 22:07:22;;;;;;;;;;;;;;;4.65;100.00;99819.72;4866772;29;19958;-79
2024/01/04 22:10:18;;;;;;;;;;;;;;;4.74;100.00;99811.63;4864671;29;20271;-78
2024/01/04 22:13:27;;;;;;;;;;;;;;;4.78;100.00;99813.75;4859888;29;20395;-79
2024/01/04 22:15:55;;;;;;;;;;;;;;;4.87;100.00;99817.13;4874390;29;19959;-79
2024/01/04 22:21:31;;;;;;;;;;;;;;;4.79;100.00;99795.88;4851474;29;19930;-79
2024/01/04 22:30:19;;;;;;;;;;;;;;;4.68;100.00;99792.69;4863715;29;20023;-80
2024/01/04 22:33:20;;;;;;;;;;;;;;;4.66;100.00;99778.72;4872283;29;19912;-80
2024/01/04 22:35:45;;;;;;;;;;;;;;;4.67;100.00;99777.69;4883282;29;19953;-80
2024/01/04 22:38:29;;;;;;;;;;;;;;;4.66;100.00;99775.22;4866502;29;20019;-80
2024/01/04 22:41:26;;;;;;;;;;;;;;;4.63;100.00;99773.75;4863738;29;19980;-80
2024/01/04 23:42:26;;;;;;;;;;;;;;;4.75;100.00;99659.47;4897626;29;20008;-81
2024/01/04 23:45:17;;;;;;;;;;;;;;;4.77;100.00;99659.25;4898668;29;20376;-79
2024/01/04 23:47:43;;;;;;;;;;;;;;;4.80;100.00;99656.22;4906812;23;20364;-79
2024/01/04 23:50:09;;;;;;;;;;;;;;;4.78;100.00;99655.59;4896967;29;19973;-81
2024/01/04 23:52:34;;;;;;;;;;;;;;;4.77;100.00;99661.94;4897758;29;19919;-81
2024/01/04 23:55:00;;;;;;;;;;;;;;;4.78;100.00;99658.25;4898997;29;19945;-82
2024/01/04 23:57:25;;;;;;;;;;;;;;;4.76;100.00;99649.66;4904656;23;19931;-80
2024/01/04 23:59:51;;;;;;;;;;;;;;;4.76;100.00;99658.44;4897595;29;19923;-80
